Barakaldo, Spain
Current Conditions -  °F | °C
As of 4:30 PM on Saturday 25 Oct 2014 (Local Time) from LEBB Reporting Station
Clear Clear  
Wind Chill: 73°   Ceiling: Unl
Heat Index: 73°   Visibility: 6mi
Dew Point: 52°   Wind: 10mph
Humidity: 47%   Direction: 300°WNW
Pressure: 30.15"   Gusts: NA
Location:  43.3°N, 3°W
Report Text: LEBB 251430Z 30009KT 260V320 CAVOK 23/11 Q1021 NOSIG
Loading
Personal Weather Stations






























Interactive Weather Map
Tropical Storm Tracking
New forecast layout! Learn more

10-Day Weather Forecast

Advertisements
Track Severe Weather on mobile